sensor_id;sensor_type;location;lat;lon;timestamp;pressure;altitude;pressure_sealevel;temperature;humidity
10897;BME280;5501;51.176;6.470;2023-11-21T00:04:07;100516.88;;;10.40;100.00
10897;BME280;5501;51.176;6.470;2023-11-21T00:09:09;100512.59;;;10.34;100.00
10897;BME280;5501;51.176;6.470;2023-11-21T00:14:11;100516.91;;;10.38;100.00
10897;BME280;5501;51.176;6.470;2023-11-21T00:19:13;100532.97;;;10.35;100.00
10897;BME280;5501;51.176;6.470;2023-11-21T00:24:14;100533.22;;;10.26;100.00
10897;BME280;5501;51.176;6.470;2023-11-21T00:29:16;100531.50;;;10.25;100.00
10897;BME280;5501;51.176;6.470;2023-11-21T00:34:18;100540.47;;;10.21;100.00
10897;BME280;5501;51.176;6.470;2023-11-21T00:39:21;100544.78;;;10.25;100.00
10897;BME280;5501;51.176;6.470;2023-11-21T00:44:22;100549.16;;;10.26;100.00
10897;BME280;5501;51.176;6.470;2023-11-21T00:49:24;100534.72;;;10.36;100.00
10897;BME280;5501;51.176;6.470;2023-11-21T00:54:27;100536.75;;;10.27;100.00
10897;BME280;5501;51.176;6.470;2023-11-21T00:59:28;100540.38;;;10.24;100.00
10897;BME280;5501;51.176;6.470;2023-11-21T01:04:30;100546.19;;;10.37;100.00
10897;BME280;5501;51.176;6.470;2023-11-21T01:09:33;100545.34;;;10.36;100.00
10897;BME280;5501;51.176;6.470;2023-11-21T01:14:35;100553.28;;;10.38;100.00
10897;BME280;5501;51.176;6.470;2023-11-21T01:19:38;100572.97;;;10.31;100.00
10897;BME280;5501;51.176;6.470;2023-11-21T01:24:40;100566.06;;;10.24;100.00
10897;BME280;5501;51.176;6.470;2023-11-21T01:29:41;100572.13;;;10.29;100.00
10897;BME280;5501;51.176;6.470;2023-11-21T01:34:43;100576.31;;;10.37;100.00
10897;BME280;5501;51.176;6.470;2023-11-21T01:39:45;100574.66;;;10.33;100.00
10897;BME280;5501;51.176;6.470;2023-11-21T01:44:49;100571.91;;;10.36;100.00
10897;BME280;5501;51.176;6.470;2023-11-21T01:49:51;100577.25;;;10.36;100.00
10897;BME280;5501;51.176;6.470;2023-11-21T01:54:53;100575.16;;;10.48;100.00
10897;BME280;5501;51.176;6.470;2023-11-21T01:59:54;100578.88;;;10.40;100.00
10897;BME280;5501;51.176;6.470;2023-11-21T02:04:57;100577.94;;;10.43;100.00
10897;BME280;5501;51.176;6.470;2023-11-21T02:09:59;100584.28;;;10.37;100.00
10897;BME280;5501;51.176;6.470;2023-11-21T02:15:04;100590.91;;;10.53;100.00
10897;BME280;5501;51.176;6.470;2023-11-21T02:20:11;100593.56;;;10.53;100.00
10897;BME280;5501;51.176;6.470;2023-11-21T02:25:17;100603.38;;;10.52;100.00
10897;BME280;5501;51.176;6.470;2023-11-21T02:30:19;100605.47;;;10.40;100.00
10897;BME280;5501;51.176;6.470;2023-11-21T02:35:21;100604.44;;;10.46;100.00
10897;BME280;5501;51.176;6.470;2023-11-21T02:40:22;100615.97;;;10.45;100.00
10897;BME280;5501;51.176;6.470;2023-11-21T02:45:26;100605.28;;;10.46;100.00
10897;BME280;5501;51.176;6.470;2023-11-21T02:50:28;100614.09;;;10.48;100.00
10897;BME280;5501;51.176;6.470;2023-11-21T02:55:29;100613.91;;;10.54;100.00
10897;BME280;5501;51.176;6.470;2023-11-21T03:00:32;100621.22;;;10.46;100.00
10897;BME280;5501;51.176;6.470;2023-11-21T03:05:33;100615.84;;;10.49;100.00
10897;BME280;5501;51.176;6.470;2023-11-21T03:10:36;100622.00;;;10.52;100.00
10897;BME280;5501;51.176;6.470;2023-11-21T03:15:39;100628.72;;;10.63;100.00
10897;BME280;5501;51.176;6.470;2023-11-21T03:20:40;100628.13;;;10.53;100.00
10897;BME280;5501;51.176;6.470;2023-11-21T03:25:42;100626.31;;;10.56;100.00
10897;BME280;5501;51.176;6.470;2023-11-21T03:30:44;100640.34;;;10.61;100.00
10897;BME280;5501;51.176;6.470;2023-11-21T03:35:45;100645.53;;;10.63;100.00
10897;BME280;5501;51.176;6.470;2023-11-21T03:40:47;100657.34;;;10.55;100.00
10897;BME280;5501;51.176;6.470;2023-11-21T03:45:49;100661.72;;;10.56;100.00
10897;BME280;5501;51.176;6.470;2023-11-21T03:50:51;100676.84;;;10.56;100.00
10897;BME280;5501;51.176;6.470;2023-11-21T03:55:52;100676.50;;;10.35;100.00
10897;BME280;5501;51.176;6.470;2023-11-21T04:00:54;100677.22;;;10.42;100.00
10897;BME280;5501;51.176;6.470;2023-11-21T04:05:55;100678.94;;;10.43;100.00
10897;BME280;5501;51.176;6.470;2023-11-21T04:10:57;100684.19;;;10.46;100.00
10897;BME280;5501;51.176;6.470;2023-11-21T04:15:59;100676.22;;;10.46;100.00
10897;BME280;5501;51.176;6.470;2023-11-21T04:21:05;100682.25;;;10.51;100.00
10897;BME280;5501;51.176;6.470;2023-11-21T04:26:07;100679.84;;;10.43;100.00
10897;BME280;5501;51.176;6.470;2023-11-21T04:31:08;100677.03;;;10.48;100.00
10897;BME280;5501;51.176;6.470;2023-11-21T04:36:10;100676.41;;;10.38;100.00
10897;BME280;5501;51.176;6.470;2023-11-21T04:41:11;100685.03;;;10.46;100.00
10897;BME280;5501;51.176;6.470;2023-11-21T04:46:13;100692.13;;;10.48;100.00
10897;BME280;5501;51.176;6.470;2023-11-21T04:51:15;100691.50;;;10.38;100.00
10897;BME280;5501;51.176;6.470;2023-11-21T04:56:16;100688.16;;;10.31;100.00
10897;BME280;5501;51.176;6.470;2023-11-21T05:01:18;100712.91;;;10.32;100.00
10897;BME280;5501;51.176;6.470;2023-11-21T05:06:19;100712.28;;;10.22;100.00
10897;BME280;5501;51.176;6.470;2023-11-21T05:11:28;100715.63;;;10.30;100.00
10897;BME280;5501;51.176;6.470;2023-11-21T05:16:30;100716.38;;;10.35;100.00
10897;BME280;5501;51.176;6.470;2023-11-21T05:21:32;100718.16;;;10.35;100.00
10897;BME280;5501;51.176;6.470;2023-11-21T05:26:34;100721.81;;;10.31;100.00
10897;BME280;5501;51.176;6.470;2023-11-21T05:31:35;100736.06;;;10.28;100.00
10897;BME280;5501;51.176;6.470;2023-11-21T05:36:37;100745.69;;;10.32;100.00
10897;BME280;5501;51.176;6.470;2023-11-21T05:41:38;100752.50;;;10.42;100.00
10897;BME280;5501;51.176;6.470;2023-11-21T05:46:40;100751.50;;;10.46;100.00
10897;BME280;5501;51.176;6.470;2023-11-21T05:51:43;100761.41;;;10.41;100.00
10897;BME280;5501;51.176;6.470;2023-11-21T05:56:46;100768.25;;;10.52;100.00
10897;BME280;5501;51.176;6.470;2023-11-21T06:01:48;100782.59;;;10.44;100.00
10897;BME280;5501;51.176;6.470;2023-11-21T06:06:51;100787.28;;;10.35;100.00
10897;BME280;5501;51.176;6.470;2023-11-21T06:11:53;100798.47;;;10.48;100.00
10897;BME280;5501;51.176;6.470;2023-11-21T06:16:55;100806.31;;;10.52;100.00
10897;BME280;5501;51.176;6.470;2023-11-21T06:21:58;100807.34;;;10.46;100.00
10897;BME280;5501;51.176;6.470;2023-11-21T06:26:59;100810.84;;;10.48;100.00
10897;BME280;5501;51.176;6.470;2023-11-21T06:32:01;100807.44;;;10.43;100.00
10897;BME280;5501;51.176;6.470;2023-11-21T06:37:06;100824.91;;;10.53;100.00
10897;BME280;5501;51.176;6.470;2023-11-21T06:42:07;100828.63;;;10.46;100.00
10897;BME280;5501;51.176;6.470;2023-11-21T06:47:09;100831.44;;;10.40;100.00
10897;BME280;5501;51.176;6.470;2023-11-21T06:52:11;100848.31;;;10.39;100.00
10897;BME280;5501;51.176;6.470;2023-11-21T06:57:12;100847.22;;;10.46;100.00
10897;BME280;5501;51.176;6.470;2023-11-21T07:02:14;100852.41;;;10.52;100.00
10897;BME280;5501;51.176;6.470;2023-11-21T07:07:16;100854.88;;;10.58;100.00
10897;BME280;5501;51.176;6.470;2023-11-21T07:12:17;100867.13;;;10.66;100.00
10897;BME280;5501;51.176;6.470;2023-11-21T07:17:19;100869.09;;;10.57;100.00
10897;BME280;5501;51.176;6.470;2023-11-21T07:22:21;100871.38;;;10.73;100.00
10897;BME280;5501;51.176;6.470;2023-11-21T07:27:23;100878.16;;;10.50;100.00
10897;BME280;5501;51.176;6.470;2023-11-21T07:32:24;100883.56;;;10.48;100.00
10897;BME280;5501;51.176;6.470;2023-11-21T07:37:26;100896.22;;;10.36;100.00
10897;BME280;5501;51.176;6.470;2023-11-21T07:42:31;100898.72;;;10.42;100.00
10897;BME280;5501;51.176;6.470;2023-11-21T07:47:33;100909.97;;;10.53;100.00
10897;BME280;5501;51.176;6.470;2023-11-21T07:52:36;100923.38;;;10.49;100.00
10897;BME280;5501;51.176;6.470;2023-11-21T07:57:37;100934.66;;;10.58;100.00
10897;BME280;5501;51.176;6.470;2023-11-21T08:02:39;100935.28;;;10.70;100.00
10897;BME280;5501;51.176;6.470;2023-11-21T08:07:44;100939.63;;;10.74;100.00
10897;BME280;5501;51.176;6.470;2023-11-21T08:12:45;100939.25;;;10.89;100.00
10897;BME280;5501;51.176;6.470;2023-11-21T08:17:47;100953.38;;;10.91;100.00
10897;BME280;5501;51.176;6.470;2023-11-21T08:22:49;100958.63;;;10.94;100.00
10897;BME280;5501;51.176;6.470;2023-11-21T08:27:51;100962.22;;;10.93;100.00
10897;BME280;5501;51.176;6.470;2023-11-21T08:32:52;100960.13;;;11.04;100.00
10897;BME280;5501;51.176;6.470;2023-11-21T08:37:55;100970.44;;;11.16;100.00
10897;BME280;5501;51.176;6.470;2023-11-21T08:42:56;100977.75;;;11.08;100.00
10897;BME280;5501;51.176;6.470;2023-11-21T08:48:00;100980.38;;;11.09;100.00
10897;BME280;5501;51.176;6.470;2023-11-21T08:53:02;100991.03;;;11.09;100.00
10897;BME280;5501;51.176;6.470;2023-11-21T08:58:04;100996.84;;;11.25;100.00
10897;BME280;5501;51.176;6.470;2023-11-21T09:03:06;101005.59;;;11.30;100.00
10897;BME280;5501;51.176;6.470;2023-11-21T09:08:10;101003.69;;;11.35;100.00
10897;BME280;5501;51.176;6.470;2023-11-21T09:13:12;101021.75;;;11.22;100.00
10897;BME280;5501;51.176;6.470;2023-11-21T09:18:13;101024.59;;;11.50;100.00
10897;BME280;5501;51.176;6.470;2023-11-21T09:23:15;101035.00;;;11.59;100.00
10897;BME280;5501;51.176;6.470;2023-11-21T09:28:17;101038.56;;;11.58;100.00
10897;BME280;5501;51.176;6.470;2023-11-21T09:33:19;101045.25;;;11.40;100.00
10897;BME280;5501;51.176;6.470;2023-11-21T09:38:22;101050.97;;;11.59;100.00
10897;BME280;5501;51.176;6.470;2023-11-21T09:43:24;101051.94;;;11.56;100.00
10897;BME280;5501;51.176;6.470;2023-11-21T09:48:30;101048.09;;;11.68;100.00
10897;BME280;5501;51.176;6.470;2023-11-21T09:53:32;101063.69;;;11.48;100.00
10897;BME280;5501;51.176;6.470;2023-11-21T09:58:35;101064.59;;;11.47;100.00
10897;BME280;5501;51.176;6.470;2023-11-21T10:03:36;101063.88;;;11.42;100.00
10897;BME280;5501;51.176;6.470;2023-11-21T10:08:41;101075.94;;;11.55;100.00
10897;BME280;5501;51.176;6.470;2023-11-21T10:13:54;101070.47;;;11.61;100.00
10897;BME280;5501;51.176;6.470;2023-11-21T10:18:57;101079.13;;;11.69;100.00
10897;BME280;5501;51.176;6.470;2023-11-21T10:24:11;101083.44;;;11.74;100.00
10897;BME280;5501;51.176;6.470;2023-11-21T10:29:14;101075.44;;;12.06;100.00
10897;BME280;5501;51.176;6.470;2023-11-21T10:34:19;101084.00;;;11.87;100.00
10897;BME280;5501;51.176;6.470;2023-11-21T10:39:21;101091.88;;;11.90;100.00
10897;BME280;5501;51.176;6.470;2023-11-21T10:44:24;101090.53;;;12.06;100.00
10897;BME280;5501;51.176;6.470;2023-11-21T10:49:27;101093.22;;;12.06;100.00
10897;BME280;5501;51.176;6.470;2023-11-21T10:54:30;101093.88;;;12.14;100.00
10897;BME280;5501;51.176;6.470;2023-11-21T10:59:31;101102.72;;;11.84;100.00
10897;BME280;5501;51.176;6.470;2023-11-21T11:04:34;101098.47;;;11.77;100.00
10897;BME280;5501;51.176;6.470;2023-11-21T11:09:39;101103.22;;;11.98;100.00
10897;BME280;5501;51.176;6.470;2023-11-21T11:14:41;101109.06;;;12.12;100.00
10897;BME280;5501;51.176;6.470;2023-11-21T11:19:44;101115.88;;;12.22;100.00
10897;BME280;5501;51.176;6.470;2023-11-21T11:24:54;101114.34;;;12.44;100.00
10897;BME280;5501;51.176;6.470;2023-11-21T11:30:40;101112.47;;;12.17;100.00
10897;BME280;5501;51.176;6.470;2023-11-21T11:36:01;101121.34;;;12.17;100.00
10897;BME280;5501;51.176;6.470;2023-11-21T11:41:04;101123.44;;;12.37;100.00
10897;BME280;5501;51.176;6.470;2023-11-21T11:46:06;101122.16;;;12.50;100.00
10897;BME280;5501;51.176;6.470;2023-11-21T11:51:13;101124.78;;;12.51;100.00
10897;BME280;5501;51.176;6.470;2023-11-21T11:56:29;101136.53;;;12.44;100.00
10897;BME280;5501;51.176;6.470;2023-11-21T12:01:33;101138.19;;;12.79;100.00
10897;BME280;5501;51.176;6.470;2023-11-21T12:06:35;101146.00;;;12.56;100.00
10897;BME280;5501;51.176;6.470;2023-11-21T12:11:37;101151.19;;;12.60;100.00
10897;BME280;5501;51.176;6.470;2023-11-21T12:16:39;101136.44;;;12.78;100.00
10897;BME280;5501;51.176;6.470;2023-11-21T12:21:40;101148.81;;;12.80;100.00
10897;BME280;5501;51.176;6.470;2023-11-21T12:26:43;101157.78;;;12.78;100.00
10897;BME280;5501;51.176;6.470;2023-11-21T12:31:45;101164.22;;;12.71;100.00
10897;BME280;5501;51.176;6.470;2023-11-21T12:36:47;101160.63;;;12.73;100.00
10897;BME280;5501;51.176;6.470;2023-11-21T12:41:50;101173.72;;;12.81;100.00
10897;BME280;5501;51.176;6.470;2023-11-21T12:46:52;101175.91;;;12.67;100.00
10897;BME280;5501;51.176;6.470;2023-11-21T12:51:54;101188.00;;;12.80;100.00
10897;BME280;5501;51.176;6.470;2023-11-21T12:56:59;101182.81;;;12.74;100.00
10897;BME280;5501;51.176;6.470;2023-11-21T13:02:01;101188.00;;;12.80;100.00
10897;BME280;5501;51.176;6.470;2023-11-21T13:07:06;101193.06;;;12.58;100.00
10897;BME280;5501;51.176;6.470;2023-11-21T13:12:15;101198.53;;;12.54;100.00
10897;BME280;5501;51.176;6.470;2023-11-21T13:17:19;101201.63;;;12.39;100.00
10897;BME280;5501;51.176;6.470;2023-11-21T13:22:24;101207.88;;;12.38;100.00
10897;BME280;5501;51.176;6.470;2023-11-21T13:27:26;101203.72;;;12.28;100.00
10897;BME280;5501;51.176;6.470;2023-11-21T13:32:28;101210.53;;;12.38;100.00
10897;BME280;5501;51.176;6.470;2023-11-21T13:37:31;101206.84;;;12.43;100.00
10897;BME280;5501;51.176;6.470;2023-11-21T13:42:33;101207.94;;;12.67;100.00
10897;BME280;5501;51.176;6.470;2023-11-21T13:47:35;101212.75;;;12.54;100.00
10897;BME280;5501;51.176;6.470;2023-11-21T13:52:38;101219.13;;;12.49;100.00
10897;BME280;5501;51.176;6.470;2023-11-21T13:57:40;101226.16;;;12.19;100.00
10897;BME280;5501;51.176;6.470;2023-11-21T14:02:44;101231.19;;;12.30;100.00
10897;BME280;5501;51.176;6.470;2023-11-21T14:07:46;101253.53;;;12.26;100.00
10897;BME280;5501;51.176;6.470;2023-11-21T14:12:50;101239.69;;;12.45;100.00
10897;BME280;5501;51.176;6.470;2023-11-21T14:17:52;101253.38;;;12.32;100.00
10897;BME280;5501;51.176;6.470;2023-11-21T14:22:53;101252.22;;;12.42;100.00
10897;BME280;5501;51.176;6.470;2023-11-21T14:27:55;101253.81;;;12.49;100.00
10897;BME280;5501;51.176;6.470;2023-11-21T14:33:00;101275.41;;;12.40;100.00
10897;BME280;5501;51.176;6.470;2023-11-21T14:38:03;101278.00;;;12.43;100.00
10897;BME280;5501;51.176;6.470;2023-11-21T14:43:06;101276.06;;;12.48;100.00
10897;BME280;5501;51.176;6.470;2023-11-21T14:48:07;101283.34;;;12.43;100.00
10897;BME280;5501;51.176;6.470;2023-11-21T14:53:17;101301.63;;;12.23;100.00
10897;BME280;5501;51.176;6.470;2023-11-21T14:58:36;101300.16;;;12.10;100.00
10897;BME280;5501;51.176;6.470;2023-11-21T15:03:40;101298.19;;;11.83;100.00
10897;BME280;5501;51.176;6.470;2023-11-21T15:08:53;101309.59;;;11.88;100.00
10897;BME280;5501;51.176;6.470;2023-11-21T15:14:21;101322.06;;;11.86;100.00
10897;BME280;5501;51.176;6.470;2023-11-21T15:19:26;101327.34;;;11.89;100.00
10897;BME280;5501;51.176;6.470;2023-11-21T15:24:29;101335.81;;;11.69;100.00
10897;BME280;5501;51.176;6.470;2023-11-21T15:29:30;101343.03;;;11.64;100.00
10897;BME280;5501;51.176;6.470;2023-11-21T15:34:32;101344.94;;;11.56;100.00
10897;BME280;5501;51.176;6.470;2023-11-21T15:39:34;101348.34;;;11.66;100.00
10897;BME280;5501;51.176;6.470;2023-11-21T15:44:36;101349.16;;;11.68;100.00
10897;BME280;5501;51.176;6.470;2023-11-21T15:49:38;101368.97;;;11.53;100.00
10897;BME280;5501;51.176;6.470;2023-11-21T15:54:40;101374.13;;;11.64;100.00
10897;BME280;5501;51.176;6.470;2023-11-21T15:59:41;101387.47;;;11.62;100.00
10897;BME280;5501;51.176;6.470;2023-11-21T16:04:46;101396.19;;;11.69;100.00
10897;BME280;5501;51.176;6.470;2023-11-21T16:09:47;101404.06;;;11.75;100.00
10897;BME280;5501;51.176;6.470;2023-11-21T16:14:49;101410.41;;;11.69;100.00
10897;BME280;5501;51.176;6.470;2023-11-21T16:19:51;101413.00;;;11.74;100.00
10897;BME280;5501;51.176;6.470;2023-11-21T16:24:53;101428.97;;;11.74;100.00
10897;BME280;5501;51.176;6.470;2023-11-21T16:29:55;101438.97;;;11.63;100.00
10897;BME280;5501;51.176;6.470;2023-11-21T16:34:57;101450.56;;;11.62;100.00
10897;BME280;5501;51.176;6.470;2023-11-21T16:40:01;101459.63;;;11.49;100.00
10897;BME280;5501;51.176;6.470;2023-11-21T16:45:03;101461.53;;;11.42;100.00
10897;BME280;5501;51.176;6.470;2023-11-21T16:50:05;101481.19;;;11.37;100.00
10897;BME280;5501;51.176;6.470;2023-11-21T16:55:06;101495.44;;;11.33;100.00
10897;BME280;5501;51.176;6.470;2023-11-21T17:00:10;101514.44;;;11.15;100.00
10897;BME280;5501;51.176;6.470;2023-11-21T17:05:13;101522.53;;;11.09;100.00
10897;BME280;5501;51.176;6.470;2023-11-21T17:10:15;101528.72;;;11.11;100.00
10897;BME280;5501;51.176;6.470;2023-11-21T17:15:17;101540.47;;;10.98;100.00
10897;BME280;5501;51.176;6.470;2023-11-21T17:20:20;101551.00;;;11.04;100.00
10897;BME280;5501;51.176;6.470;2023-11-21T17:25:21;101559.94;;;11.00;100.00
10897;BME280;5501;51.176;6.470;2023-11-21T17:30:23;101568.88;;;10.96;100.00
10897;BME280;5501;51.176;6.470;2023-11-21T17:35:25;101576.19;;;10.82;100.00
10897;BME280;5501;51.176;6.470;2023-11-21T17:40:26;101583.59;;;10.62;100.00
10897;BME280;5501;51.176;6.470;2023-11-21T17:45:29;101600.03;;;10.25;100.00
10897;BME280;5501;51.176;6.470;2023-11-21T17:50:31;101628.56;;;10.11;100.00
10897;BME280;5501;51.176;6.470;2023-11-21T17:55:34;101637.00;;;9.63;100.00
10897;BME280;5501;51.176;6.470;2023-11-21T18:00:35;101651.31;;;9.49;100.00
10897;BME280;5501;51.176;6.470;2023-11-21T18:05:37;101651.50;;;9.25;100.00
10897;BME280;5501;51.176;6.470;2023-11-21T18:10:39;101663.97;;;9.12;100.00
10897;BME280;5501;51.176;6.470;2023-11-21T18:15:40;101668.44;;;9.06;100.00
10897;BME280;5501;51.176;6.470;2023-11-21T18:20:42;101679.72;;;9.33;100.00
10897;BME280;5501;51.176;6.470;2023-11-21T18:25:44;101697.38;;;9.42;100.00
10897;BME280;5501;51.176;6.470;2023-11-21T18:30:46;101708.63;;;9.72;100.00
10897;BME280;5501;51.176;6.470;2023-11-21T18:35:49;101706.91;;;9.65;100.00
10897;BME280;5501;51.176;6.470;2023-11-21T18:40:51;101705.22;;;9.57;100.00
10897;BME280;5501;51.176;6.470;2023-11-21T18:45:53;101706.13;;;9.56;100.00
10897;BME280;5501;51.176;6.470;2023-11-21T18:50:56;101712.41;;;9.44;100.00
10897;BME280;5501;51.176;6.470;2023-11-21T18:55:57;101732.88;;;9.29;100.00
10897;BME280;5501;51.176;6.470;2023-11-21T19:00:59;101748.03;;;9.03;100.00
10897;BME280;5501;51.176;6.470;2023-11-21T19:06:01;101760.47;;;8.96;100.00
10897;BME280;5501;51.176;6.470;2023-11-21T19:11:02;101769.38;;;8.80;100.00
10897;BME280;5501;51.176;6.470;2023-11-21T19:16:04;101771.06;;;9.05;100.00
10897;BME280;5501;51.176;6.470;2023-11-21T19:21:12;101783.53;;;8.79;100.00
10897;BME280;5501;51.176;6.470;2023-11-21T19:26:14;101792.38;;;8.72;99.33
10897;BME280;5501;51.176;6.470;2023-11-21T19:31:20;101794.19;;;8.67;99.39
10897;BME280;5501;51.176;6.470;2023-11-21T19:36:22;101800.25;;;8.99;99.03
10897;BME280;5501;51.176;6.470;2023-11-21T19:41:24;101802.06;;;8.97;97.36
10897;BME280;5501;51.176;6.470;2023-11-21T19:46:27;101811.75;;;8.98;95.81
10897;BME280;5501;51.176;6.470;2023-11-21T19:51:29;101817.94;;;9.03;96.52
10897;BME280;5501;51.176;6.470;2023-11-21T19:56:30;101820.59;;;9.03;96.70
10897;BME280;5501;51.176;6.470;2023-11-21T20:01:32;101832.94;;;9.07;95.43
10897;BME280;5501;51.176;6.470;2023-11-21T20:06:39;101844.41;;;9.20;95.46
10897;BME280;5501;51.176;6.470;2023-11-21T20:11:49;101848.81;;;9.22;95.65
10897;BME280;5501;51.176;6.470;2023-11-21T20:16:52;101867.41;;;9.22;95.97
10897;BME280;5501;51.176;6.470;2023-11-21T20:21:57;101877.97;;;9.31;95.67
10897;BME280;5501;51.176;6.470;2023-11-21T20:26:59;101874.41;;;9.34;94.00
10897;BME280;5501;51.176;6.470;2023-11-21T20:32:00;101879.78;;;9.22;94.73
10897;BME280;5501;51.176;6.470;2023-11-21T20:37:03;101887.69;;;9.29;96.79
10897;BME280;5501;51.176;6.470;2023-11-21T20:42:05;101893.00;;;9.32;95.99
10897;BME280;5501;51.176;6.470;2023-11-21T20:47:07;101903.63;;;9.32;96.94
10897;BME280;5501;51.176;6.470;2023-11-21T20:52:13;101905.31;;;9.45;96.21
10897;BME280;5501;51.176;6.470;2023-11-21T20:57:14;101898.31;;;9.32;96.95
10897;BME280;5501;51.176;6.470;2023-11-21T21:02:16;101905.41;;;9.24;97.55
10897;BME280;5501;51.176;6.470;2023-11-21T21:07:18;101898.34;;;9.20;97.90
10897;BME280;5501;51.176;6.470;2023-11-21T21:12:20;101901.00;;;9.23;97.60
10897;BME280;5501;51.176;6.470;2023-11-21T21:17:21;101900.16;;;9.20;97.78
10897;BME280;5501;51.176;6.470;2023-11-21T21:22:23;101904.59;;;9.13;97.92
10897;BME280;5501;51.176;6.470;2023-11-21T21:27:25;101908.13;;;9.20;99.08
10897;BME280;5501;51.176;6.470;2023-11-21T21:32:27;101924.91;;;9.23;98.52
10897;BME280;5501;51.176;6.470;2023-11-21T21:37:28;101932.00;;;9.12;98.47
10897;BME280;5501;51.176;6.470;2023-11-21T21:42:30;101953.22;;;9.18;98.85
10897;BME280;5501;51.176;6.470;2023-11-21T21:47:32;101961.19;;;9.20;98.13
10897;BME280;5501;51.176;6.470;2023-11-21T21:52:35;101963.81;;;9.30;97.19
10897;BME280;5501;51.176;6.470;2023-11-21T21:57:37;101962.09;;;9.11;97.48
10897;BME280;5501;51.176;6.470;2023-11-21T22:02:42;101969.16;;;9.18;98.77
10897;BME280;5501;51.176;6.470;2023-11-21T22:07:44;101978.00;;;9.17;98.38
10897;BME280;5501;51.176;6.470;2023-11-21T22:12:45;101988.63;;;9.11;97.56
10897;BME280;5501;51.176;6.470;2023-11-21T22:17:47;101997.47;;;9.22;98.03
10897;BME280;5501;51.176;6.470;2023-11-21T22:22:51;101998.31;;;9.24;98.13
10897;BME280;5501;51.176;6.470;2023-11-21T22:27:53;102006.34;;;9.09;98.01
10897;BME280;5501;51.176;6.470;2023-11-21T22:32:55;102002.78;;;9.04;97.73
10897;BME280;5501;51.176;6.470;2023-11-21T22:38:00;102020.47;;;8.99;98.50
10897;BME280;5501;51.176;6.470;2023-11-21T22:43:01;102018.69;;;9.04;99.06
10897;BME280;5501;51.176;6.470;2023-11-21T22:48:03;102027.56;;;9.03;98.81
10897;BME280;5501;51.176;6.470;2023-11-21T22:53:04;102035.50;;;8.90;99.54
10897;BME280;5501;51.176;6.470;2023-11-21T22:58:06;102058.53;;;8.89;100.00
10897;BME280;5501;51.176;6.470;2023-11-21T23:03:08;102064.72;;;8.97;99.92
10897;BME280;5501;51.176;6.470;2023-11-21T23:08:10;102051.44;;;9.03;99.67
10897;BME280;5501;51.176;6.470;2023-11-21T23:13:12;102070.00;;;8.85;100.00
10897;BME280;5501;51.176;6.470;2023-11-21T23:18:15;102071.78;;;8.86;100.00
10897;BME280;5501;51.176;6.470;2023-11-21T23:23:16;102078.84;;;8.90;100.00
10897;BME280;5501;51.176;6.470;2023-11-21T23:28:18;102074.44;;;8.79;100.00
10897;BME280;5501;51.176;6.470;2023-11-21T23:33:21;102077.06;;;8.71;100.00
10897;BME280;5501;51.176;6.470;2023-11-21T23:38:22;102073.50;;;8.57;100.00
10897;BME280;5501;51.176;6.470;2023-11-21T23:43:24;102064.69;;;8.61;100.00
10897;BME280;5501;51.176;6.470;2023-11-21T23:48:28;102077.88;;;8.37;100.00
10897;BME280;5501;51.176;6.470;2023-11-21T23:53:29;102084.97;;;8.49;100.00
10897;BME280;5501;51.176;6.470;2023-11-21T23:58:31;102083.22;;;8.66;100.00
